PDT,Max TemperatureF,Mean TemperatureF,Min TemperatureF,Max Dew PointF,MeanDew PointF,Min DewpointF,Max Humidity, Mean Humidity, Min Humidity, Max Sea Level PressureIn, Mean Sea Level PressureIn, Min Sea Level PressureIn, Max VisibilityMiles, Mean VisibilityMiles, Min VisibilityMiles, Max Wind SpeedMPH, Mean Wind SpeedMPH, Max Gust SpeedMPH,PrecipitationIn, CloudCover, Events, WindDirDegrees
2014-3-1,64,57,49,,,,,,,29.89,29.74,29.64,10,10,10,16,7,25,T,4,Rain,131
2014-3-2,63,55,47,,,,,,,30.15,30.07,29.92,10,10,9,14,6,16,0.00,5,,148
2014-3-3,64,55,46,54,53,51,93,80,67,30.18,30.14,30.07,10,3,0,8,3,,0.00,5,Fog,69
2014-3-4,67,60,52,53,52,50,93,75,56,30.13,30.09,30.04,10,8,3,10,4,13,T,3,,307
2014-3-5,71,60,49,56,52,48,100,79,57,30.15,30.10,30.05,6,3,0,8,3,11,0.00,1,Fog,151
2014-3-6,75,65,54,57,52,41,100,72,43,30.12,30.08,30.05,10,6,2,22,12,27,0.01,3,,349
2014-3-7,68,56,44,50,46,44,93,69,45,30.19,30.13,30.09,10,9,6,17,6,21,0.00,2,,302
2014-3-8,73,57,41,49,44,40,100,68,35,30.22,30.16,30.13,10,4,0,10,2,14,0.00,0,Fog,113
2014-3-9,74,62,49,53,49,46,89,65,41,30.21,30.15,30.09,10,8,4,9,3,11,0.00,0,,23
2014-3-10,74,61,47,52,48,41,93,69,44,30.17,30.11,30.06,10,8,5,25,13,30,0.00,0,,313
2014-3-11,69,56,42,45,41,37,83,60,37,30.15,30.08,30.01,10,9,4,13,5,15,0.00,0,,321
2014-3-12,73,57,41,44,37,29,96,59,22,30.11,30.03,29.97,10,6,2,26,5,36,0.00,1,,338
2014-3-13,77,60,42,39,32,16,80,37,10,30.05,30.00,29.95,10,8,1,9,5,,0.00,0,,322
2014-3-14,77,59,40,43,37,29,82,49,16,30.19,30.12,30.06,10,8,2,16,5,19,0.00,0,,1
2014-3-15,79,61,43,46,43,40,89,59,28,30.32,30.26,30.20,10,10,6,9,5,13,0.00,0,,339
2014-3-16,84,64,43,50,43,38,93,57,20,30.33,30.24,30.13,10,8,2,13,4,16,0.00,0,,18
2014-3-17,73,63,53,46,40,29,60,46,31,30.13,30.04,29.91,10,6,1,24,15,31,0.00,0,,326
2014-3-18,72,56,39,40,35,30,76,51,26,29.99,29.94,29.89,10,10,7,14,5,18,0.00,0,,305
2014-3-19,78,60,41,41,34,22,86,49,12,30.09,30.03,30.00,10,9,6,10,3,14,0.00,0,,233
2014-3-20,80,62,43,46,39,30,86,52,17,30.06,29.98,29.89,10,9,5,10,4,14,0.00,0,,328
2014-3-21,80,64,47,45,40,35,74,48,21,29.95,29.91,29.86,10,9,4,16,8,23,0.00,0,,322
2014-3-22,76,59,42,45,40,34,89,55,21,30.07,30.02,29.93,10,10,8,20,5,27,0.00,0,,311
2014-3-23,80,62,43,45,39,28,89,53,16,30.14,30.08,30.03,10,10,7,15,6,17,0.00,0,,319
2014-3-24,83,63,43,43,40,37,83,52,20,30.14,30.06,29.97,10,10,5,14,5,16,0.00,0,,317
2014-3-25,79,62,44,50,36,20,83,48,13,29.99,29.90,29.81,10,7,1,23,8,27,0.00,1,,320
2014-3-26,64,56,48,51,48,42,100,74,48,30.00,29.92,29.86,10,10,4,17,6,22,0.06,5,Rain,60
2014-3-27,69,55,40,50,43,36,100,65,30,30.14,30.05,30.00,10,5,0,16,6,21,0.00,1,Fog,310
2014-3-28,73,59,45,46,44,42,93,64,35,30.24,30.17,30.11,10,8,2,10,4,14,0.00,0,,355
2014-3-29,78,62,46,49,45,37,86,57,27,30.15,30.05,29.91,10,7,2,29,9,46,0.20,1,Rain,92
2014-3-30,64,56,48,49,44,38,93,66,39,30.17,30.10,30.04,10,10,5,13,5,16,0.11,3,Rain,310
2014-3-31,67,57,46,49,44,35,93,64,34,30.07,29.98,29.87,10,9,6,23,8,28,0.09,3,Rain,279